createdAt,value
2019-04-29T00:02:36.886Z,3.00
2019-04-29T00:07:41.202Z,2.57
2019-04-29T00:12:45.223Z,2.53
2019-04-29T00:17:59.403Z,2.40
2019-04-29T00:23:03.656Z,2.67
2019-04-29T00:28:07.662Z,2.83
2019-04-29T00:33:12.015Z,1.90
2019-04-29T00:38:34.050Z,2.83
2019-04-29T00:44:03.260Z,2.50
2019-04-29T00:49:08.500Z,2.57
2019-04-29T00:54:19.492Z,3.13
2019-04-29T00:59:23.441Z,2.50
2019-04-29T01:04:27.718Z,3.10
2019-04-29T01:09:31.718Z,3.30
2019-04-29T01:14:36.007Z,2.97
2019-04-29T01:19:39.846Z,2.50
2019-04-29T01:24:44.246Z,2.43
2019-04-29T01:29:48.642Z,2.47
2019-04-29T01:34:54.631Z,3.00
2019-04-29T01:40:08.735Z,2.73
2019-04-29T01:45:13.025Z,3.20
2019-04-29T01:50:17.152Z,3.03
2019-04-29T01:55:21.745Z,2.60
2019-04-29T02:00:25.811Z,2.30
2019-04-29T02:05:30.127Z,2.40
2019-04-29T02:10:35.418Z,2.97
2019-04-29T02:15:39.647Z,2.00
2019-04-29T02:20:43.679Z,3.17
2019-04-29T02:25:48.324Z,2.40
2019-04-29T02:30:53.082Z,3.07
2019-04-29T02:35:57.832Z,2.57
2019-04-29T02:41:18.131Z,2.57
2019-04-29T02:46:22.101Z,3.33
2019-04-29T02:51:44.414Z,2.70
2019-04-29T02:56:53.974Z,2.40
2019-04-29T03:02:23.082Z,3.10
2019-04-29T03:07:27.098Z,3.50
2019-04-29T03:12:31.163Z,2.93
2019-04-29T03:17:35.725Z,2.20
2019-04-29T03:22:41.077Z,2.33
2019-04-29T03:27:45.154Z,2.70
2019-04-29T03:32:49.142Z,2.57
2019-04-29T03:37:53.294Z,2.53
2019-04-29T03:42:57.266Z,2.37
2019-04-29T03:48:01.628Z,2.37
2019-04-29T03:53:06.340Z,2.73
2019-04-29T03:58:10.670Z,3.27
2019-04-29T04:03:32.127Z,2.63
2019-04-29T04:08:38.761Z,3.00
2019-04-29T04:13:45.732Z,3.03
2019-04-29T04:18:51.651Z,2.40
2019-04-29T04:23:58.115Z,2.63
2019-04-29T04:29:01.629Z,2.83
2019-04-29T04:34:05.708Z,3.00
2019-04-29T04:39:11.689Z,2.60
2019-04-29T04:44:15.887Z,2.40
2019-04-29T04:49:20.187Z,3.27
2019-04-29T04:54:24.153Z,3.07
2019-04-29T04:59:28.406Z,3.30
2019-04-29T05:04:32.639Z,2.90
2019-04-29T05:09:37.188Z,2.57
2019-04-29T05:14:41.158Z,3.10
2019-04-29T05:19:45.056Z,3.00
2019-04-29T05:24:49.307Z,3.03
2019-04-29T05:29:53.513Z,2.93
2019-04-29T05:34:59.159Z,2.70
2019-04-29T05:40:03.218Z,2.70
2019-04-29T05:45:22.191Z,3.70
2019-04-29T05:50:47.571Z,3.47
2019-04-29T05:55:52.466Z,3.00
2019-04-29T06:00:59.630Z,3.60
2019-04-29T06:06:03.665Z,3.20
2019-04-29T06:11:08.027Z,2.90
2019-04-29T06:16:15.815Z,2.60
2019-04-29T06:21:18.377Z,3.57
2019-04-29T06:26:22.336Z,3.27
2019-04-29T06:31:26.292Z,3.10
2019-04-29T06:36:31.049Z,4.17
2019-04-29T06:41:35.268Z,4.00
2019-04-29T06:46:40.021Z,3.87
2019-04-29T06:51:44.034Z,4.07
2019-04-29T06:56:48.699Z,6.30
2019-04-29T07:01:52.728Z,5.40
2019-04-29T07:06:57.939Z,5.67
2019-04-29T07:12:02.308Z,6.87
2019-04-29T07:17:07.244Z,6.97
2019-04-29T07:22:11.371Z,7.40
2019-04-29T07:27:15.630Z,6.97
2019-04-29T07:32:20.159Z,7.60
2019-04-29T07:37:24.395Z,6.90
2019-04-29T07:42:32.280Z,8.60
2019-04-29T07:47:35.010Z,7.47
2019-04-29T07:52:38.971Z,7.57
2019-04-29T07:57:43.170Z,8.07
2019-04-29T08:02:47.510Z,8.13
2019-04-29T08:07:51.650Z,7.30
2019-04-29T08:12:58.739Z,7.00
2019-04-29T08:18:06.754Z,8.10
2019-04-29T08:23:08.706Z,6.60
2019-04-29T08:28:12.654Z,6.33
2019-04-29T08:33:16.617Z,7.30
2019-04-29T08:38:20.967Z,8.63
2019-04-29T08:43:47.488Z,7.33
2019-04-29T08:48:51.759Z,8.77
2019-04-29T08:53:56.007Z,8.80
2019-04-29T08:59:00.131Z,11.90
2019-04-29T09:04:04.159Z,10.40
2019-04-29T09:09:10.465Z,12.60
2019-04-29T09:14:14.197Z,9.77
2019-04-29T09:19:18.767Z,11.57
2019-04-29T09:24:22.791Z,12.13
2019-04-29T09:29:36.962Z,10.87
2019-04-29T09:34:40.907Z,9.67
2019-04-29T09:39:46.755Z,8.90
2019-04-29T09:45:24.377Z,9.90
2019-04-29T09:50:28.648Z,9.70
2019-04-29T09:55:35.696Z,9.13
2019-04-29T10:00:45.820Z,9.63
2019-04-29T10:06:04.651Z,9.00
2019-04-29T10:11:09.613Z,8.57
2019-04-29T10:16:36.045Z,8.30
2019-04-29T10:21:38.574Z,8.73
2019-04-29T10:26:43.091Z,7.90
2019-04-29T10:31:47.427Z,7.80
2019-04-29T10:36:52.568Z,8.43
2019-04-29T10:41:59.191Z,8.80
2019-04-29T10:47:28.793Z,7.50
2019-04-29T10:52:34.566Z,7.30
2019-04-29T10:57:39.433Z,8.63
2019-04-29T11:02:44.717Z,8.57
2019-04-29T11:07:49.835Z,8.73
2019-04-29T11:12:54.730Z,8.10
2019-04-29T11:18:03.038Z,8.27
2019-04-29T11:23:18.112Z,8.57
2019-04-29T11:28:21.819Z,8.43
2019-04-29T11:33:35.517Z,8.57
2019-04-29T11:38:41.451Z,8.57
2019-04-29T11:43:46.712Z,8.17
2019-04-29T11:48:54.232Z,8.47
2019-04-29T11:53:58.474Z,7.90
2019-04-29T11:59:19.384Z,7.40
2019-04-29T12:04:33.409Z,6.33
2019-04-29T12:09:35.495Z,6.90
2019-04-29T12:14:48.305Z,5.90
2019-04-29T12:19:55.875Z,7.93
2019-04-29T12:25:00.103Z,6.00
2019-04-29T12:30:07.207Z,5.67
2019-04-29T12:35:16.617Z,5.53
2019-04-29T12:40:55.119Z,5.73
2019-04-29T12:46:12.883Z,4.73
2019-04-29T12:51:17.215Z,6.13
2019-04-29T12:56:30.673Z,5.07
2019-04-29T13:02:06.616Z,7.00
2019-04-29T13:07:33.025Z,6.63
2019-04-29T13:12:39.761Z,6.47
2019-04-29T13:18:02.664Z,4.80
2019-04-29T13:22:59.004Z,5.80
2019-04-29T13:28:04.423Z,7.20
2019-04-29T13:33:16.408Z,6.17
2019-04-29T13:38:15.972Z,4.60
2019-04-29T13:43:20.835Z,4.60
2019-04-29T13:48:55.200Z,4.00
2019-04-29T13:53:49.478Z,5.27
2019-04-29T13:58:53.910Z,3.93
2019-04-29T14:04:14.422Z,4.40
2019-04-29T14:09:18.985Z,4.50
2019-04-29T14:14:24.495Z,4.43
2019-04-29T14:19:44.789Z,3.90
2019-04-29T14:24:35.443Z,3.80
2019-04-29T14:29:40.424Z,4.70
2019-04-29T14:34:51.442Z,3.70
2019-04-29T14:39:55.395Z,4.40
2019-04-29T14:45:17.370Z,3.87
2019-04-29T14:50:21.417Z,4.57
2019-04-29T14:55:27.069Z,4.40
2019-04-29T15:00:49.114Z,4.93
2019-04-29T15:05:53.686Z,4.40
2019-04-29T15:10:57.828Z,5.10
2019-04-29T15:16:09.652Z,5.90
2019-04-29T15:21:31.668Z,4.40
2019-04-29T15:26:25.766Z,5.30
2019-04-29T15:31:30.095Z,3.00
2019-04-29T15:36:34.832Z,5.20
2019-04-29T15:41:39.979Z,7.13
2019-04-29T15:46:47.227Z,5.80
2019-04-29T15:51:51.031Z,5.10
2019-04-29T15:56:55.641Z,6.07
2019-04-29T16:02:04.343Z,5.37
2019-04-29T16:07:46.739Z,6.30
2019-04-29T16:12:52.582Z,6.20
2019-04-29T16:17:56.928Z,4.37
2019-04-29T16:23:02.203Z,6.97
2019-04-29T16:28:07.053Z,8.77
2019-04-29T16:33:14.362Z,6.30
2019-04-29T16:38:17.651Z,5.40
2019-04-29T16:43:35.985Z,6.17
2019-04-29T16:48:40.428Z,4.87
2019-04-29T16:53:44.315Z,4.83
2019-04-29T16:58:48.503Z,6.90
2019-04-29T17:03:52.892Z,6.97
2019-04-29T17:09:23.035Z,5.40
2019-04-29T17:14:25.803Z,5.77
2019-04-29T17:19:30.041Z,5.67
2019-04-29T17:24:34.267Z,5.90
2019-04-29T17:30:08.084Z,7.30
2019-04-29T17:35:12.935Z,5.90
2019-04-29T17:40:19.916Z,5.77
2019-04-29T17:45:31.678Z,5.23
2019-04-29T17:51:01.007Z,5.90
2019-04-29T17:56:12.009Z,5.73
2019-04-29T18:01:36.858Z,5.50
2019-04-29T18:06:44.983Z,5.80
2019-04-29T18:11:53.516Z,6.53
2019-04-29T18:16:57.871Z,6.03
2019-04-29T18:22:20.231Z,6.37
2019-04-29T18:27:25.379Z,5.70
2019-04-29T18:32:35.638Z,6.23
2019-04-29T18:37:38.393Z,6.90
2019-04-29T18:42:43.351Z,7.60
2019-04-29T18:47:47.943Z,7.40
2019-04-29T18:52:52.629Z,8.40
2019-04-29T18:57:58.471Z,7.00
2019-04-29T19:03:02.895Z,6.97
2019-04-29T19:08:14.370Z,6.60
2019-04-29T19:13:16.169Z,7.80
2019-04-29T19:18:21.104Z,7.13
2019-04-29T19:23:29.164Z,7.30
2019-04-29T19:28:32.549Z,7.30
2019-04-29T19:33:39.318Z,6.50
2019-04-29T19:38:45.677Z,6.73
2019-04-29T19:43:55.061Z,6.40
2019-04-29T19:48:58.254Z,6.93
2019-04-29T19:54:02.565Z,7.50
2019-04-29T19:59:11.978Z,6.77
2019-04-29T20:04:34.811Z,6.73
2019-04-29T20:09:40.048Z,7.80
2019-04-29T20:14:45.094Z,7.07
2019-04-29T20:20:00.118Z,7.10
2019-04-29T20:25:02.044Z,6.90
2019-04-29T20:30:15.769Z,5.67
2019-04-29T20:35:13.284Z,6.63
2019-04-29T20:40:17.647Z,5.80
2019-04-29T20:45:25.470Z,6.10
2019-04-29T20:50:28.011Z,5.87
2019-04-29T20:55:36.586Z,6.67
2019-04-29T21:00:39.844Z,5.67
2019-04-29T21:05:48.201Z,5.90
2019-04-29T21:10:51.676Z,6.10
2019-04-29T21:16:00.651Z,6.27
2019-04-29T21:21:07.823Z,8.03
2019-04-29T21:26:11.054Z,7.43
2019-04-29T21:31:18.540Z,6.43
2019-04-29T21:36:30.679Z,6.03
2019-04-29T21:41:45.861Z,6.93
2019-04-29T21:46:50.325Z,6.27
2019-04-29T21:51:55.547Z,6.63
2019-04-29T21:56:59.506Z,6.80
2019-04-29T22:02:06.659Z,6.97
2019-04-29T22:07:10.739Z,6.87
2019-04-29T22:12:20.181Z,6.47
2019-04-29T22:17:21.030Z,6.13
2019-04-29T22:22:25.391Z,7.23
2019-04-29T22:27:34.226Z,6.13
2019-04-29T22:32:36.211Z,6.50
2019-04-29T22:37:40.217Z,7.70
2019-04-29T22:43:10.184Z,6.83
2019-04-29T22:48:17.433Z,6.40
2019-04-29T22:53:18.852Z,6.70
2019-04-29T22:58:24.912Z,7.40
2019-04-29T23:03:32.803Z,7.47
2019-04-29T23:08:38.036Z,7.37
2019-04-29T23:13:40.770Z,8.70
2019-04-29T23:18:45.839Z,8.13
2019-04-29T23:23:55.164Z,9.80
2019-04-29T23:29:03.297Z,8.90
2019-04-29T23:34:05.890Z,9.00
2019-04-29T23:39:09.986Z,10.00
2019-04-29T23:44:14.301Z,10.40
2019-04-29T23:49:19.447Z,10.90
2019-04-29T23:54:25.210Z,10.70
2019-04-29T23:59:31.495Z,11.77
